Flight Track Log - Related Links

Times and Time Zones

All times are in EDT time to prevent confusion due to time zone crossing. See the CPT8773 flight status page for this flight to view local times or setup timezone preferences in your user account.

Time Position Orientation Groundspeed Altitude Reporting Facility
EDT Latitude Longitude Course Direction KTS MPH feet Rate Location/Type
Thu 09:11:14 AM 43.0203 -106.5397 308° West 127 146 7,600  Level Denver Center
Thu 09:13:17 AM 43.0867 -106.5831 335° Northwest 128 147 8,600 489 Climbing Denver Center
Thu 09:14:18 AM 43.1225 -106.6067 334° Northwest 128 147 9,100 443 Climbing Denver Center
Thu 09:15:00 AM 43.0913 -106.2806 308° West  Level FlightAware Approximate
Thu 09:15:19 AM 43.1536 -106.6228 339° North 126 145 9,500  Level Denver Center
Thu 09:16:00 AM 43.1160 -106.3238 308° West  Level FlightAware Approximate
Thu 09:16:20 AM 43.1858 -106.6383 341° North 126 145 9,800  Level Denver Center
Thu 09:17:21 AM 43.2222 -106.6581 338° Northwest 126 145 10,200 341 Climbing Denver Center
Thu 09:18:23 AM 43.2567 -106.6731 342° North 131 151 10,500 293 Climbing Denver Center
Thu 09:19:24 AM 43.2906 -106.6872 343° North 133 153 10,800 344 Climbing Denver Center
Thu 09:20:25 AM 43.3297 -106.7111 336° Northwest 137 158 11,200 344 Climbing Denver Center
Thu 09:21:26 AM 43.3453 -106.7506 298° West 128 147 11,500 246 Climbing Denver Center
Thu 09:22:27 AM 43.3661 -106.7986 301° West 131 151 11,700 244 Climbing Denver Center
Thu 09:23:29 AM 43.3878 -106.8364 308° West 131 151 12,000 146 Climbing Denver Center
Thu 09:24:30 AM 43.4119 -106.8747 311° West 137 158 12,000  Level Denver Center
Thu 09:25:31 AM 43.4372 -106.9272 304° West 142 163 12,000  Level Denver Center
Thu 09:26:33 AM 43.4594 -106.9756 302° West 148 170 12,000 -49 Level Denver Center
Thu 09:27:34 AM 43.4825 -107.0194 306° West 143 165 11,900  Descending Denver Center
Thu 09:28:35 AM 43.5069 -107.0631 308° West 144 166 12,000 49 Climbing Denver Center
Thu 09:29:36 AM 43.5300 -107.1072 306° West 143 165 12,000  Level Denver Center
Thu 09:30:38 AM 43.5536 -107.1511 307° West 143 165 12,000  Level Denver Center
Thu 09:31:41 AM 43.5750 -107.2008 301° West 147 169 12,000  Level Salt Lake Center
Thu 09:32:42 AM 43.5975 -107.2458 305° West 145 167 12,000  Level Salt Lake Center
Thu 09:33:44 AM 43.6264 -107.3000 306° West 146 168 12,000  Level Salt Lake Center
Thu 09:34:45 AM 43.6497 -107.3428 307° West 144 166 12,000  Level Salt Lake Center
Thu 09:35:46 AM 43.6736 -107.3894 305° West 145 167 12,000  Level Salt Lake Center
Thu 09:36:48 AM 43.6958 -107.4344 304° West 144 166 12,000  Level Salt Lake Center
Thu 09:37:49 AM 43.7192 -107.4783 306° West 143 165 12,000  Level Salt Lake Center
Thu 09:38:50 AM 43.7431 -107.5228 307° West 143 165 12,000  Level Salt Lake Center
Thu 09:39:52 AM 43.7667 -107.5703 305° West 146 168 12,000  Level Salt Lake Center
Thu 09:40:53 AM 43.7894 -107.6167 304° West 146 168 12,000  Level Salt Lake Center
Thu 09:41:55 AM 43.8181 -107.6711 306° West 146 168 12,000  Level Salt Lake Center
Thu 09:42:56 AM 43.8411 -107.7164 305° West 146 168 12,000  Level Salt Lake Center
Thu 09:43:57 AM 43.8639 -107.7622 305° West 145 167 12,000  Level Salt Lake Center
Thu 09:44:59 AM 43.8881 -107.8067 307° West 145 167 12,000  Level Salt Lake Center
Thu 09:46:00 AM 43.9119 -107.8525 306° West 145 167 12,000  Level Salt Lake Center
Thu 09:47:02 AM 43.9344 -107.8994 304° West 146 168 12,000  Level Salt Lake Center
Thu 09:48:03 AM 43.9575 -107.9461 304° West 146 168 12,000  Level Salt Lake Center
Thu 09:49:05 AM 43.9858 -107.9922 311° West 150 173 12,000 49 Level Salt Lake Center
Thu 09:50:06 AM 44.0169 -108.0353 315° West 155 178 12,100 49 Climbing Salt Lake Center
Thu 09:51:08 AM 44.0525 -108.0894 312° West 157 181 12,100  Level Salt Lake Center
Thu 09:52:09 AM 44.0808 -108.1331 312° West 156 180 12,100 -49 Level Salt Lake Center
Thu 09:53:11 AM 44.1108 -108.1783 313° West 156 180 12,000 -49 Descending Salt Lake Center
Thu 09:54:12 AM 44.1397 -108.2228 312° West 156 180 12,000  Level Salt Lake Center
Thu 09:55:14 AM 44.1683 -108.2672 312° West 155 178 12,000  Level Salt Lake Center
Thu 09:56:15 AM 44.1969 -108.3103 313° West 154 177 12,000  Level Salt Lake Center
Thu 09:57:17 AM 44.2244 -108.3533 312° West 152 175 12,000  Level Salt Lake Center
Thu 09:58:18 AM 44.2525 -108.3969 312° West 151 174 12,000  Level Salt Lake Center
Thu 09:59:20 AM 44.2867 -108.4489 313° West 151 174 12,000 -195 Level Salt Lake Center
Thu 10:00:21 AM 44.3153 -108.4925 313° West 152 175 11,600 -634 Descending Salt Lake Center
Thu 10:01:23 AM 44.3383 -108.5514 299° West 160 184 10,700 -823 Descending Salt Lake Center
Thu 10:02:25 AM 44.3611 -108.6156 296° West 171 197 9,900 -780 Descending Salt Lake Center
Thu 10:03:26 AM 44.3850 -108.6769 299° West 177 204 9,100 -439 Descending Salt Lake Center
Thu 10:04:28 AM 44.4075 -108.7333 299° West 175 201 9,000 -48 Descending Salt Lake Center
Thu 10:05:30 AM 44.4258 -108.7847 297° West 164 189 9,000 -49 Level Salt Lake Center
Thu 10:06:31 AM 44.4483 -108.8442 298° West 153 176 8,900 -293 Descending Salt Lake Center
Thu 10:07:33 AM 44.4647 -108.8975 293° West 151 174 8,400 -726 Descending Salt Lake Center
Thu 10:08:35 AM 44.4725 -108.9606 280° West 158 182 7,400 -1,073 Descending Salt Lake Center
Thu 10:09:36 AM 44.4825 -109.0178 284° West 157 181 6,200 -976 Descending Salt Lake Center
Thu 10:10:38 AM 44.5117 -109.0456 326° Northwest 140 161 5,400 -774 Descending Salt Lake Center
Thu 10:12:00 AM 44.5167 -109.0167 295° West  Level FlightAware Approximate

Login

Don't have an account? Register now (free) for customized features, flight alerts, and more!